sensor_id;sensor_type;location;lat;lon;timestamp;pressure;altitude;pressure_sealevel;temperature;humidity
45731;BME280;31440;48.584;13.460;2023-01-28T00:00:48;97202.91;;;-2.49;100.00
45731;BME280;31440;48.584;13.460;2023-01-28T00:03:55;97163.16;;;-2.89;100.00
45731;BME280;31440;48.584;13.460;2023-01-28T00:06:59;97208.44;;;-2.24;100.00
45731;BME280;31440;48.584;13.460;2023-01-28T00:10:04;97187.75;;;-2.43;100.00
45731;BME280;31440;48.584;13.460;2023-01-28T00:13:11;97202.91;;;-1.99;100.00
45731;BME280;31440;48.584;13.460;2023-01-28T00:16:18;97205.97;;;-2.68;100.00
45731;BME280;31440;48.584;13.460;2023-01-28T00:19:23;97204.84;;;-2.36;100.00
45731;BME280;31440;48.584;13.460;2023-01-28T00:22:28;97198.41;;;-2.15;100.00
45731;BME280;31440;48.584;13.460;2023-01-28T00:25:32;97203.53;;;-2.62;100.00
45731;BME280;31440;48.584;13.460;2023-01-28T00:28:37;97201.00;;;-2.12;100.00
45731;BME280;31440;48.584;13.460;2023-01-28T00:34:47;97206.34;;;-1.97;100.00
45731;BME280;31440;48.584;13.460;2023-01-28T00:37:53;97201.66;;;-2.24;100.00
45731;BME280;31440;48.584;13.460;2023-01-28T00:44:12;97212.78;;;-2.20;100.00
45731;BME280;31440;48.584;13.460;2023-01-28T00:47:18;97189.16;;;-2.60;100.00
45731;BME280;31440;48.584;13.460;2023-01-28T00:50:22;97209.28;;;-2.25;100.00
45731;BME280;31440;48.584;13.460;2023-01-28T00:53:27;97208.63;;;-2.12;100.00
45731;BME280;31440;48.584;13.460;2023-01-28T00:56:32;97212.69;;;-2.25;100.00
45731;BME280;31440;48.584;13.460;2023-01-28T00:59:37;97217.81;;;-2.23;100.00
45731;BME280;31440;48.584;13.460;2023-01-28T01:02:41;97222.09;;;-2.21;100.00
45731;BME280;31440;48.584;13.460;2023-01-28T01:05:48;97217.69;;;-2.29;100.00
45731;BME280;31440;48.584;13.460;2023-01-28T01:08:52;97220.59;;;-2.08;100.00
45731;BME280;31440;48.584;13.460;2023-01-28T01:11:57;97217.47;;;-2.43;100.00
45731;BME280;31440;48.584;13.460;2023-01-28T01:15:03;97222.84;;;-2.26;100.00
45731;BME280;31440;48.584;13.460;2023-01-28T01:18:08;97212.81;;;-2.19;100.00
45731;BME280;31440;48.584;13.460;2023-01-28T01:21:16;97217.47;;;-1.92;100.00
45731;BME280;31440;48.584;13.460;2023-01-28T01:24:21;97217.34;;;-2.01;100.00
45731;BME280;31440;48.584;13.460;2023-01-28T01:27:27;97221.91;;;-2.31;100.00
45731;BME280;31440;48.584;13.460;2023-01-28T01:30:32;97218.47;;;-2.33;100.00
45731;BME280;31440;48.584;13.460;2023-01-28T01:36:43;97227.47;;;-2.54;100.00
45731;BME280;31440;48.584;13.460;2023-01-28T01:39:47;97224.91;;;-2.06;100.00
45731;BME280;31440;48.584;13.460;2023-01-28T01:42:52;97230.25;;;-1.90;100.00
45731;BME280;31440;48.584;13.460;2023-01-28T01:45:59;97234.47;;;-2.42;100.00
45731;BME280;31440;48.584;13.460;2023-01-28T01:52:25;97240.59;;;-2.31;100.00
45731;BME280;31440;48.584;13.460;2023-01-28T01:55:34;97222.38;;;-2.52;100.00
45731;BME280;31440;48.584;13.460;2023-01-28T01:58:43;97240.03;;;-2.13;100.00
45731;BME280;31440;48.584;13.460;2023-01-28T02:01:51;97237.66;;;-2.04;100.00
45731;BME280;31440;48.584;13.460;2023-01-28T02:04:56;97235.88;;;-2.10;100.00
45731;BME280;31440;48.584;13.460;2023-01-28T02:08:00;97236.72;;;-2.09;100.00
45731;BME280;31440;48.584;13.460;2023-01-28T02:11:28;97227.72;;;-1.89;100.00
45731;BME280;31440;48.584;13.460;2023-01-28T02:14:36;97230.84;;;-2.05;100.00
45731;BME280;31440;48.584;13.460;2023-01-28T02:17:43;97228.09;;;-2.16;100.00
45731;BME280;31440;48.584;13.460;2023-01-28T02:28:12;97239.97;;;-2.19;100.00
45731;BME280;31440;48.584;13.460;2023-01-28T02:31:26;97238.63;;;-2.46;100.00
45731;BME280;31440;48.584;13.460;2023-01-28T02:34:45;97248.13;;;-2.36;100.00
45731;BME280;31440;48.584;13.460;2023-01-28T02:41:06;97246.97;;;-2.06;100.00
45731;BME280;31440;48.584;13.460;2023-01-28T02:44:13;97239.09;;;-2.20;100.00
45731;BME280;31440;48.584;13.460;2023-01-28T02:47:18;97240.81;;;-2.19;100.00
45731;BME280;31440;48.584;13.460;2023-01-28T02:50:53;97246.81;;;-2.14;100.00
45731;BME280;31440;48.584;13.460;2023-01-28T02:54:12;97250.75;;;-2.32;100.00
45731;BME280;31440;48.584;13.460;2023-01-28T02:57:33;97241.97;;;-2.02;100.00
45731;BME280;31440;48.584;13.460;2023-01-28T03:01:06;97240.88;;;-2.14;100.00
45731;BME280;31440;48.584;13.460;2023-01-28T03:04:14;97247.56;;;-2.21;100.00
45731;BME280;31440;48.584;13.460;2023-01-28T03:07:23;97239.75;;;-2.30;100.00
45731;BME280;31440;48.584;13.460;2023-01-28T03:10:29;97239.81;;;-2.27;100.00
45731;BME280;31440;48.584;13.460;2023-01-28T03:13:34;97245.84;;;-2.22;100.00
45731;BME280;31440;48.584;13.460;2023-01-28T03:16:58;97248.78;;;-1.99;100.00
45731;BME280;31440;48.584;13.460;2023-01-28T03:20:25;97253.00;;;-2.01;100.00
45731;BME280;31440;48.584;13.460;2023-01-28T03:23:55;97250.81;;;-2.29;100.00
45731;BME280;31440;48.584;13.460;2023-01-28T03:27:30;97254.06;;;-1.88;100.00
45731;BME280;31440;48.584;13.460;2023-01-28T03:31:10;97255.13;;;-1.74;100.00
45731;BME280;31440;48.584;13.460;2023-01-28T03:34:36;97251.31;;;-2.01;100.00
45731;BME280;31440;48.584;13.460;2023-01-28T03:38:00;97267.19;;;-1.64;100.00
45731;BME280;31440;48.584;13.460;2023-01-28T03:41:05;97269.50;;;-1.79;100.00
45731;BME280;31440;48.584;13.460;2023-01-28T03:44:09;97270.72;;;-2.09;100.00
45731;BME280;31440;48.584;13.460;2023-01-28T03:47:33;97265.69;;;-2.04;100.00
45731;BME280;31440;48.584;13.460;2023-01-28T03:50:41;97262.88;;;-2.19;100.00
45731;BME280;31440;48.584;13.460;2023-01-28T03:53:46;97272.44;;;-2.08;100.00
45731;BME280;31440;48.584;13.460;2023-01-28T03:56:50;97271.00;;;-1.92;100.00
45731;BME280;31440;48.584;13.460;2023-01-28T03:59:55;97262.66;;;-1.83;100.00
45731;BME280;31440;48.584;13.460;2023-01-28T04:06:08;97266.34;;;-1.63;100.00
45731;BME280;31440;48.584;13.460;2023-01-28T04:09:31;97266.13;;;-1.77;100.00
45731;BME280;31440;48.584;13.460;2023-01-28T04:13:01;97272.84;;;-1.83;100.00
45731;BME280;31440;48.584;13.460;2023-01-28T04:16:07;97280.09;;;-1.53;100.00
45731;BME280;31440;48.584;13.460;2023-01-28T04:19:17;97279.72;;;-1.78;100.00
45731;BME280;31440;48.584;13.460;2023-01-28T04:22:22;97283.28;;;-1.68;100.00
45731;BME280;31440;48.584;13.460;2023-01-28T04:25:30;97284.22;;;-1.61;100.00
45731;BME280;31440;48.584;13.460;2023-01-28T04:31:42;97289.88;;;-1.79;100.00
45731;BME280;31440;48.584;13.460;2023-01-28T04:35:05;97290.69;;;-1.82;100.00
45731;BME280;31440;48.584;13.460;2023-01-28T04:38:28;97288.19;;;-1.79;100.00
45731;BME280;31440;48.584;13.460;2023-01-28T04:41:57;97290.88;;;-1.71;100.00
45731;BME280;31440;48.584;13.460;2023-01-28T04:45:18;97284.22;;;-1.61;100.00
45731;BME280;31440;48.584;13.460;2023-01-28T04:48:36;97289.19;;;-1.71;100.00
45731;BME280;31440;48.584;13.460;2023-01-28T04:52:13;97295.63;;;-1.38;100.00
45731;BME280;31440;48.584;13.460;2023-01-28T04:55:33;97298.59;;;-1.68;100.00
45731;BME280;31440;48.584;13.460;2023-01-28T04:58:38;97295.13;;;-1.72;100.00
45731;BME280;31440;48.584;13.460;2023-01-28T05:01:48;97299.13;;;-1.87;100.00
45731;BME280;31440;48.584;13.460;2023-01-28T05:04:53;97302.47;;;-1.90;100.00
45731;BME280;31440;48.584;13.460;2023-01-28T05:08:26;97307.75;;;-1.78;100.00
45731;BME280;31440;48.584;13.460;2023-01-28T05:11:31;97309.81;;;-1.55;100.00
45731;BME280;31440;48.584;13.460;2023-01-28T05:14:40;97310.47;;;-1.69;100.00
45731;BME280;31440;48.584;13.460;2023-01-28T05:17:48;97314.03;;;-1.57;100.00
45731;BME280;31440;48.584;13.460;2023-01-28T05:20:56;97313.00;;;-1.70;100.00
45731;BME280;31440;48.584;13.460;2023-01-28T05:24:01;97281.69;;;-1.60;100.00
45731;BME280;31440;48.584;13.460;2023-01-28T05:27:06;97303.19;;;-1.44;100.00
45731;BME280;31440;48.584;13.460;2023-01-28T05:30:11;97304.72;;;-1.55;100.00
45731;BME280;31440;48.584;13.460;2023-01-28T05:33:16;97313.25;;;-1.55;100.00
45731;BME280;31440;48.584;13.460;2023-01-28T05:36:20;97322.94;;;-1.85;100.00
45731;BME280;31440;48.584;13.460;2023-01-28T05:39:25;97295.16;;;-1.70;100.00
45731;BME280;31440;48.584;13.460;2023-01-28T05:42:30;97328.31;;;-1.69;100.00
45731;BME280;31440;48.584;13.460;2023-01-28T05:45:48;97326.75;;;-1.60;100.00
45731;BME280;31440;48.584;13.460;2023-01-28T05:49:12;97322.28;;;-1.74;100.00
45731;BME280;31440;48.584;13.460;2023-01-28T05:52:29;97322.47;;;-1.61;100.00
45731;BME280;31440;48.584;13.460;2023-01-28T05:55:34;97330.13;;;-1.61;100.00
45731;BME280;31440;48.584;13.460;2023-01-28T06:01:45;97339.38;;;-1.68;100.00
45731;BME280;31440;48.584;13.460;2023-01-28T06:04:51;97334.69;;;-1.42;100.00
45731;BME280;31440;48.584;13.460;2023-01-28T06:07:56;97343.69;;;-1.10;100.00
45731;BME280;31440;48.584;13.460;2023-01-28T06:11:02;97343.22;;;-1.40;100.00
45731;BME280;31440;48.584;13.460;2023-01-28T06:14:09;97349.81;;;-1.54;100.00
45731;BME280;31440;48.584;13.460;2023-01-28T06:17:32;97347.22;;;-2.06;100.00
45731;BME280;31440;48.584;13.460;2023-01-28T06:20:42;97343.38;;;-2.29;100.00
45731;BME280;31440;48.584;13.460;2023-01-28T06:23:47;97352.72;;;-1.81;100.00
45731;BME280;31440;48.584;13.460;2023-01-28T06:26:52;97360.97;;;-1.96;100.00
45731;BME280;31440;48.584;13.460;2023-01-28T06:29:56;97343.59;;;-2.17;100.00
45731;BME280;31440;48.584;13.460;2023-01-28T06:33:01;97368.06;;;-2.25;100.00
45731;BME280;31440;48.584;13.460;2023-01-28T06:36:06;97363.25;;;-2.53;100.00
45731;BME280;31440;48.584;13.460;2023-01-28T06:39:12;97322.03;;;-3.53;100.00
45731;BME280;31440;48.584;13.460;2023-01-28T06:42:16;97373.06;;;-3.11;100.00
45731;BME280;31440;48.584;13.460;2023-01-28T06:45:21;97383.69;;;-2.91;100.00
45731;BME280;31440;48.584;13.460;2023-01-28T06:48:26;97384.09;;;-2.73;100.00
45731;BME280;31440;48.584;13.460;2023-01-28T06:51:33;97334.78;;;-3.15;100.00
45731;BME280;31440;48.584;13.460;2023-01-28T06:54:37;97390.19;;;-3.02;100.00
45731;BME280;31440;48.584;13.460;2023-01-28T06:57:42;97400.88;;;-3.17;100.00
45731;BME280;31440;48.584;13.460;2023-01-28T07:00:48;97404.09;;;-3.24;100.00
45731;BME280;31440;48.584;13.460;2023-01-28T07:03:53;97399.91;;;-3.22;100.00
45731;BME280;31440;48.584;13.460;2023-01-28T07:06:59;97393.56;;;-3.03;100.00
45731;BME280;31440;48.584;13.460;2023-01-28T07:10:03;97411.69;;;-2.89;100.00
45731;BME280;31440;48.584;13.460;2023-01-28T07:16:14;97408.06;;;-2.21;100.00
45731;BME280;31440;48.584;13.460;2023-01-28T07:19:18;97408.91;;;-2.22;100.00
45731;BME280;31440;48.584;13.460;2023-01-28T07:22:23;97413.69;;;-2.37;100.00
45731;BME280;31440;48.584;13.460;2023-01-28T07:25:27;97421.00;;;-2.51;100.00
45731;BME280;31440;48.584;13.460;2023-01-28T07:28:32;97415.25;;;-2.02;100.00
45731;BME280;31440;48.584;13.460;2023-01-28T07:31:36;97418.31;;;-2.19;100.00
45731;BME280;31440;48.584;13.460;2023-01-28T07:34:41;97418.72;;;-1.96;100.00
45731;BME280;31440;48.584;13.460;2023-01-28T07:37:53;97422.53;;;-2.20;100.00
45731;BME280;31440;48.584;13.460;2023-01-28T07:44:03;97433.16;;;-1.97;100.00
45731;BME280;31440;48.584;13.460;2023-01-28T07:47:08;97439.31;;;-1.87;100.00
45731;BME280;31440;48.584;13.460;2023-01-28T07:50:13;97434.44;;;-2.17;100.00
45731;BME280;31440;48.584;13.460;2023-01-28T07:53:20;97442.94;;;-2.17;100.00
45731;BME280;31440;48.584;13.460;2023-01-28T07:56:25;97445.84;;;-2.42;100.00
45731;BME280;31440;48.584;13.460;2023-01-28T07:59:32;97446.16;;;-2.66;100.00
45731;BME280;31440;48.584;13.460;2023-01-28T08:02:37;97450.75;;;-2.09;100.00
45731;BME280;31440;48.584;13.460;2023-01-28T08:05:45;97452.34;;;-2.14;100.00
45731;BME280;31440;48.584;13.460;2023-01-28T08:08:50;97456.94;;;-2.39;100.00
45731;BME280;31440;48.584;13.460;2023-01-28T08:15:01;97454.78;;;-2.59;100.00
45731;BME280;31440;48.584;13.460;2023-01-28T08:18:07;97454.75;;;-2.61;100.00
45731;BME280;31440;48.584;13.460;2023-01-28T08:21:12;97458.53;;;-2.44;100.00
45731;BME280;31440;48.584;13.460;2023-01-28T08:24:16;97461.41;;;-2.28;100.00
45731;BME280;31440;48.584;13.460;2023-01-28T08:27:21;97451.13;;;-2.31;100.00
45731;BME280;31440;48.584;13.460;2023-01-28T08:30:26;97459.28;;;-2.48;100.00
45731;BME280;31440;48.584;13.460;2023-01-28T08:33:31;97458.16;;;-2.60;100.00
45731;BME280;31440;48.584;13.460;2023-01-28T08:36:36;97467.44;;;-2.25;100.00
45731;BME280;31440;48.584;13.460;2023-01-28T08:39:40;97465.59;;;-1.90;100.00
45731;BME280;31440;48.584;13.460;2023-01-28T08:42:49;97469.31;;;-2.55;100.00
45731;BME280;31440;48.584;13.460;2023-01-28T08:45:54;97466.88;;;-2.49;100.00
45731;BME280;31440;48.584;13.460;2023-01-28T08:48:59;97472.97;;;-2.04;100.00
45731;BME280;31440;48.584;13.460;2023-01-28T08:52:03;97475.38;;;-2.49;100.00
45731;BME280;31440;48.584;13.460;2023-01-28T08:55:08;97476.16;;;-2.12;100.00
45731;BME280;31440;48.584;13.460;2023-01-28T08:58:16;97453.53;;;-1.97;100.00
45731;BME280;31440;48.584;13.460;2023-01-28T09:01:21;97445.09;;;-1.94;100.00
45731;BME280;31440;48.584;13.460;2023-01-28T09:04:25;97477.34;;;-1.96;100.00
45731;BME280;31440;48.584;13.460;2023-01-28T09:07:30;97468.75;;;-2.42;100.00
45731;BME280;31440;48.584;13.460;2023-01-28T09:10:37;97446.50;;;-2.49;100.00
45731;BME280;31440;48.584;13.460;2023-01-28T09:13:42;97483.22;;;-1.99;100.00
45731;BME280;31440;48.584;13.460;2023-01-28T09:16:46;97478.09;;;-2.02;100.00
45731;BME280;31440;48.584;13.460;2023-01-28T09:19:51;97477.81;;;-2.14;100.00
45731;BME280;31440;48.584;13.460;2023-01-28T09:22:57;97481.53;;;-1.98;100.00
45731;BME280;31440;48.584;13.460;2023-01-28T09:26:03;97481.00;;;-1.84;100.00
45731;BME280;31440;48.584;13.460;2023-01-28T09:29:08;97486.09;;;-2.26;100.00
45731;BME280;31440;48.584;13.460;2023-01-28T09:32:12;97483.72;;;-1.75;100.00
45731;BME280;31440;48.584;13.460;2023-01-28T09:35:17;97478.41;;;-2.27;100.00
45731;BME280;31440;48.584;13.460;2023-01-28T09:38:22;97496.31;;;-2.24;100.00
45731;BME280;31440;48.584;13.460;2023-01-28T09:45:22;97496.84;;;-2.39;100.00
45731;BME280;31440;48.584;13.460;2023-01-28T09:48:42;97500.75;;;-2.55;100.00
45731;BME280;31440;48.584;13.460;2023-01-28T09:51:51;97500.59;;;-2.61;100.00
45731;BME280;31440;48.584;13.460;2023-01-28T09:55:46;97491.28;;;-2.21;100.00
45731;BME280;31440;48.584;13.460;2023-01-28T09:58:24;97496.22;;;-2.66;100.00
45731;BME280;31440;48.584;13.460;2023-01-28T10:01:40;97495.13;;;-2.01;100.00
45731;BME280;31440;48.584;13.460;2023-01-28T10:08:18;97494.25;;;-2.02;100.00
45731;BME280;31440;48.584;13.460;2023-01-28T10:11:37;97487.41;;;-2.04;100.00
45731;BME280;31440;48.584;13.460;2023-01-28T10:18:03;97476.09;;;-1.75;100.00
45731;BME280;31440;48.584;13.460;2023-01-28T10:21:26;97475.59;;;-1.99;100.00
45731;BME280;31440;48.584;13.460;2023-01-28T10:24:40;97480.19;;;-1.81;100.00
45731;BME280;31440;48.584;13.460;2023-01-28T10:27:49;97481.41;;;-2.06;100.00
45731;BME280;31440;48.584;13.460;2023-01-28T10:30:54;97482.38;;;-2.01;100.00
45731;BME280;31440;48.584;13.460;2023-01-28T10:33:59;97475.19;;;-2.20;100.00
45731;BME280;31440;48.584;13.460;2023-01-28T10:37:04;97471.09;;;-1.69;100.00
45731;BME280;31440;48.584;13.460;2023-01-28T10:40:14;97477.06;;;-1.68;100.00
45731;BME280;31440;48.584;13.460;2023-01-28T10:43:22;97487.25;;;-1.70;100.00
45731;BME280;31440;48.584;13.460;2023-01-28T10:46:29;97481.44;;;-1.61;100.00
45731;BME280;31440;48.584;13.460;2023-01-28T10:53:02;97481.25;;;-1.72;100.00
45731;BME280;31440;48.584;13.460;2023-01-28T10:56:24;97478.06;;;-1.13;100.00
45731;BME280;31440;48.584;13.460;2023-01-28T10:59:31;97487.41;;;-1.60;100.00
45731;BME280;31440;48.584;13.460;2023-01-28T11:02:36;97480.41;;;-1.24;100.00
45731;BME280;31440;48.584;13.460;2023-01-28T11:05:52;97483.41;;;-1.48;100.00
45731;BME280;31440;48.584;13.460;2023-01-28T11:12:20;97474.56;;;-1.18;100.00
45731;BME280;31440;48.584;13.460;2023-01-28T11:15:25;97472.72;;;-0.76;100.00
45731;BME280;31440;48.584;13.460;2023-01-28T11:18:34;97475.91;;;-1.39;100.00
45731;BME280;31440;48.584;13.460;2023-01-28T11:21:40;97482.63;;;-1.87;100.00
45731;BME280;31440;48.584;13.460;2023-01-28T11:24:51;97482.78;;;-1.80;100.00
45731;BME280;31440;48.584;13.460;2023-01-28T11:27:57;97477.63;;;-1.83;100.00
45731;BME280;31440;48.584;13.460;2023-01-28T11:31:05;97439.75;;;-2.08;100.00
45731;BME280;31440;48.584;13.460;2023-01-28T11:34:16;97472.69;;;-1.28;100.00
45731;BME280;31440;48.584;13.460;2023-01-28T11:37:23;97472.78;;;-1.22;100.00
45731;BME280;31440;48.584;13.460;2023-01-28T11:40:28;97472.03;;;-1.17;100.00
45731;BME280;31440;48.584;13.460;2023-01-28T11:43:33;97474.94;;;-0.96;100.00
45731;BME280;31440;48.584;13.460;2023-01-28T12:00:23;97469.31;;;-1.26;100.00
45731;BME280;31440;48.584;13.460;2023-01-28T12:03:37;97466.47;;;-0.94;100.00
45731;BME280;31440;48.584;13.460;2023-01-28T12:07:00;97458.84;;;-0.90;100.00
45731;BME280;31440;48.584;13.460;2023-01-28T12:10:28;97464.69;;;-1.48;100.00
45731;BME280;31440;48.584;13.460;2023-01-28T12:13:58;97461.94;;;-1.09;100.00
45731;BME280;31440;48.584;13.460;2023-01-28T12:27:45;97463.78;;;-1.01;100.00
45731;BME280;31440;48.584;13.460;2023-01-28T12:38:05;97466.69;;;-1.32;100.00
45731;BME280;31440;48.584;13.460;2023-01-28T12:41:15;97450.75;;;-1.67;100.00
45731;BME280;31440;48.584;13.460;2023-01-28T12:45:01;97456.81;;;-1.59;100.00
45731;BME280;31440;48.584;13.460;2023-01-28T12:48:03;97471.09;;;-1.22;100.00
45731;BME280;31440;48.584;13.460;2023-01-28T12:57:29;97468.47;;;-1.25;100.00
45731;BME280;31440;48.584;13.460;2023-01-28T13:00:40;97460.09;;;-1.19;100.00
45731;BME280;31440;48.584;13.460;2023-01-28T13:03:56;97447.41;;;-1.15;100.00
45731;BME280;31440;48.584;13.460;2023-01-28T13:07:26;97455.97;;;-1.10;100.00
45731;BME280;31440;48.584;13.460;2023-01-28T13:10:38;97464.69;;;-1.48;100.00
45731;BME280;31440;48.584;13.460;2023-01-28T13:13:45;97471.44;;;-1.50;100.00
45731;BME280;31440;48.584;13.460;2023-01-28T13:16:50;97474.44;;;-0.75;100.00
45731;BME280;31440;48.584;13.460;2023-01-28T13:19:59;97474.25;;;-0.85;100.00
45731;BME280;31440;48.584;13.460;2023-01-28T13:23:18;97471.28;;;-1.11;100.00
45731;BME280;31440;48.584;13.460;2023-01-28T13:26:27;97472.97;;;-1.10;100.00
45731;BME280;31440;48.584;13.460;2023-01-28T13:29:33;97477.69;;;-1.35;100.00
45731;BME280;31440;48.584;13.460;2023-01-28T13:32:37;97483.31;;;-1.03;100.00
45731;BME280;31440;48.584;13.460;2023-01-28T13:35:52;97475.88;;;-0.90;100.00
45731;BME280;31440;48.584;13.460;2023-01-28T13:39:05;97484.31;;;-0.94;100.00
45731;BME280;31440;48.584;13.460;2023-01-28T13:42:26;97482.50;;;-1.02;100.00
45731;BME280;31440;48.584;13.460;2023-01-28T13:45:31;97483.97;;;-1.16;100.00
45731;BME280;31440;48.584;13.460;2023-01-28T13:48:57;97489.16;;;-1.10;100.00
45731;BME280;31440;48.584;13.460;2023-01-28T13:55:19;97475.88;;;-0.90;100.00
45731;BME280;31440;48.584;13.460;2023-01-28T14:12:45;97515.81;;;-0.41;100.00
45731;BME280;31440;48.584;13.460;2023-01-28T14:16:02;97518.59;;;-0.80;100.00
45731;BME280;31440;48.584;13.460;2023-01-28T14:19:11;97518.84;;;-0.65;100.00
45731;BME280;31440;48.584;13.460;2023-01-28T14:22:19;97492.31;;;-1.71;100.00
45731;BME280;31440;48.584;13.460;2023-01-28T14:32:03;97520.94;;;-0.40;100.00
45731;BME280;31440;48.584;13.460;2023-01-28T14:35:09;97521.06;;;-0.31;100.00
45731;BME280;31440;48.584;13.460;2023-01-28T14:38:18;97509.56;;;-1.10;100.00
45731;BME280;31440;48.584;13.460;2023-01-28T14:41:27;97541.69;;;-1.22;100.00
45731;BME280;31440;48.584;13.460;2023-01-28T14:44:37;97538.19;;;-1.27;100.00
45731;BME280;31440;48.584;13.460;2023-01-28T14:51:17;97538.09;;;-1.34;100.00
45731;BME280;31440;48.584;13.460;2023-01-28T14:54:34;97536.94;;;-1.49;100.00
45731;BME280;31440;48.584;13.460;2023-01-28T15:00:56;97539.69;;;-1.39;100.00
45731;BME280;31440;48.584;13.460;2023-01-28T15:04:04;97491.03;;;-1.49;100.00
45731;BME280;31440;48.584;13.460;2023-01-28T15:10:35;97543.69;;;-1.51;100.00
45731;BME280;31440;48.584;13.460;2023-01-28T15:13:44;97548.50;;;-1.67;100.00
45731;BME280;31440;48.584;13.460;2023-01-28T15:16:49;97554.19;;;-1.36;100.00
45731;BME280;31440;48.584;13.460;2023-01-28T15:23:01;97555.28;;;-1.23;100.00
45731;BME280;31440;48.584;13.460;2023-01-28T15:26:17;97564.38;;;-1.38;100.00
45731;BME280;31440;48.584;13.460;2023-01-28T15:29:34;97565.38;;;-1.72;100.00
45731;BME280;31440;48.584;13.460;2023-01-28T15:32:39;97507.53;;;-1.74;100.00
45731;BME280;31440;48.584;13.460;2023-01-28T15:35:55;97564.91;;;-1.54;100.00
45731;BME280;31440;48.584;13.460;2023-01-28T15:39:00;97569.97;;;-1.96;100.00
45731;BME280;31440;48.584;13.460;2023-01-28T15:42:05;97569.00;;;-1.60;100.00
45731;BME280;31440;48.584;13.460;2023-01-28T15:45:18;97572.72;;;-1.45;100.00
45731;BME280;31440;48.584;13.460;2023-01-28T15:48:26;97575.16;;;-1.51;100.00
45731;BME280;31440;48.584;13.460;2023-01-28T15:51:32;97575.50;;;-1.75;100.00
45731;BME280;31440;48.584;13.460;2023-01-28T15:54:42;97578.38;;;-1.59;100.00
45731;BME280;31440;48.584;13.460;2023-01-28T15:57:47;97581.69;;;-1.65;100.00
45731;BME280;31440;48.584;13.460;2023-01-28T16:01:02;97584.72;;;-1.83;100.00
45731;BME280;31440;48.584;13.460;2023-01-28T16:04:22;97584.75;;;-1.80;100.00
45731;BME280;31440;48.584;13.460;2023-01-28T16:07:29;97590.28;;;-1.58;100.00
45731;BME280;31440;48.584;13.460;2023-01-28T16:10:34;97588.53;;;-1.61;100.00
45731;BME280;31440;48.584;13.460;2023-01-28T16:13:43;97594.38;;;-1.68;100.00
45731;BME280;31440;48.584;13.460;2023-01-28T16:16:47;97586.84;;;-1.60;100.00
45731;BME280;31440;48.584;13.460;2023-01-28T16:20:03;97591.34;;;-1.89;100.00
45731;BME280;31440;48.584;13.460;2023-01-28T16:23:20;97590.84;;;-1.73;100.00
45731;BME280;31440;48.584;13.460;2023-01-28T16:26:28;97580.13;;;-1.97;100.00
45731;BME280;31440;48.584;13.460;2023-01-28T16:32:39;97608.88;;;-1.66;100.00
45731;BME280;31440;48.584;13.460;2023-01-28T16:35:45;97593.31;;;-2.15;100.00
45731;BME280;31440;48.584;13.460;2023-01-28T16:39:09;97605.75;;;-1.52;100.00
45731;BME280;31440;48.584;13.460;2023-01-28T16:42:14;97616.63;;;-1.59;100.00
45731;BME280;31440;48.584;13.460;2023-01-28T16:45:21;97601.56;;;-1.49;100.00
45731;BME280;31440;48.584;13.460;2023-01-28T16:48:26;97623.53;;;-1.55;100.00
45731;BME280;31440;48.584;13.460;2023-01-28T16:51:34;97601.34;;;-1.58;100.00
45731;BME280;31440;48.584;13.460;2023-01-28T16:54:41;97598.59;;;-1.69;100.00
45731;BME280;31440;48.584;13.460;2023-01-28T16:57:55;97623.44;;;-1.18;100.00
45731;BME280;31440;48.584;13.460;2023-01-28T17:01:00;97615.63;;;-1.25;100.00
45731;BME280;31440;48.584;13.460;2023-01-28T17:04:05;97624.34;;;-1.14;100.00
45731;BME280;31440;48.584;13.460;2023-01-28T17:07:15;97630.13;;;-1.23;100.00
45731;BME280;31440;48.584;13.460;2023-01-28T17:10:22;97583.88;;;-1.40;100.00
45731;BME280;31440;48.584;13.460;2023-01-28T17:13:26;97625.75;;;-1.30;100.00
45731;BME280;31440;48.584;13.460;2023-01-28T17:16:31;97635.47;;;-1.12;100.00
45731;BME280;31440;48.584;13.460;2023-01-28T17:19:35;97640.16;;;-1.32;100.00
45731;BME280;31440;48.584;13.460;2023-01-28T17:22:42;97599.50;;;-1.67;100.00
45731;BME280;31440;48.584;13.460;2023-01-28T17:25:46;97643.97;;;-1.12;100.00
45731;BME280;31440;48.584;13.460;2023-01-28T17:28:51;97648.88;;;-1.21;100.00
45731;BME280;31440;48.584;13.460;2023-01-28T17:31:57;97640.59;;;-1.11;100.00
45731;BME280;31440;48.584;13.460;2023-01-28T17:35:02;97640.59;;;-1.09;100.00
45731;BME280;31440;48.584;13.460;2023-01-28T17:38:07;97650.06;;;-1.04;100.00
45731;BME280;31440;48.584;13.460;2023-01-28T17:41:12;97649.50;;;-1.33;100.00
45731;BME280;31440;48.584;13.460;2023-01-28T17:47:23;97649.44;;;-1.36;100.00
45731;BME280;31440;48.584;13.460;2023-01-28T17:50:27;97664.78;;;-1.34;100.00
45731;BME280;31440;48.584;13.460;2023-01-28T17:53:32;97661.63;;;-1.22;100.00
45731;BME280;31440;48.584;13.460;2023-01-28T17:56:37;97665.63;;;-1.35;100.00
45731;BME280;31440;48.584;13.460;2023-01-28T17:59:42;97663.19;;;-1.27;100.00
45731;BME280;31440;48.584;13.460;2023-01-28T18:02:49;97637.97;;;-1.14;100.00
45731;BME280;31440;48.584;13.460;2023-01-28T18:05:58;97664.50;;;-1.06;100.00
45731;BME280;31440;48.584;13.460;2023-01-28T18:09:03;97656.94;;;-1.01;100.00
45731;BME280;31440;48.584;13.460;2023-01-28T18:12:11;97667.38;;;-0.89;100.00
45731;BME280;31440;48.584;13.460;2023-01-28T18:15:16;97665.88;;;-1.62;100.00
45731;BME280;31440;48.584;13.460;2023-01-28T18:18:21;97667.56;;;-1.62;100.00
45731;BME280;31440;48.584;13.460;2023-01-28T18:21:37;97673.06;;;-1.82;100.00
45731;BME280;31440;48.584;13.460;2023-01-28T18:24:56;97675.63;;;-1.82;100.00
45731;BME280;31440;48.584;13.460;2023-01-28T18:28:01;97680.38;;;-1.59;100.00
45731;BME280;31440;48.584;13.460;2023-01-28T18:34:11;97684.41;;;-1.32;100.00
45731;BME280;31440;48.584;13.460;2023-01-28T18:37:16;97688.34;;;-1.46;100.00
45731;BME280;31440;48.584;13.460;2023-01-28T18:40:20;97678.13;;;-1.46;100.00